Main page
METAR-TAF:

METAR-TAF

Airports :

Zeltweg Air Base

Zeltweg, Austria

latitude: 47-12N, longitude: 014-45E, elevation: 677 m

Current weather observation

The report was made 3 hours and 55 minutes ago, at 20:50 UTC
Wind 2 kt from variable directions
Temperature 1°C
Humidity 86%
Pressure 1018 hPa

METAR: LOXZ 172050Z VRB02KT 10KM SCT220CI 01/M01 Q1018

Time: 01:45 (00:45 UTC)

Forecast

The report was made 13 hours and 30 minutes ago, at 11:15 UTC
Forecast valid from 17 at 12 UTC to 17 at 21 UTC
Wind 3 kt from variable directions
Visibility 10 km or more
Few clouds at a height of 20000 ft
Broken clouds at a height of 30000 ft

TAF: LOXZ 171115Z 1712/1721 VRB03KT 9999 FEW200 BKN300

Weather observations and forecasts of more than 4000 airports (METAR and TAF reports).

The available stations are represented by yellow and red dots on the map.

Hover mouse over dot to see the name of the station.

Then click to see weather observations and forecasts.

To change the map : click on the green buttons with a black cross to zoom in, on the green button with a dash to zoom out, or on the green arrows for adjacent maps.


METAR-TAF: